Time;durP1;ratioP1;P1;durP2;ratioP2;P2;SDS_P1;SDS_P2;PMS_P1;PMS_P2;Temp;Humidity;BMP_temperature;BMP_pressure;BME280_temperature;BME280_humidity;BME280_pressure;Samples;Min_cycle;Max_cycle;Signal;HPM_P1;HPM_P2
2022/07/31 00:02:22;;;;;;;;;23.40;21.00;;;;;24.90;56.34;98099.16;6264296;27;97514;-58
2022/07/31 00:05:25;;;;;;;;;37.67;32.00;;;;;24.90;56.35;98099.16;6287922;27;96993;-55
2022/07/31 00:08:30;;;;;;;;;25.80;23.40;;;;;24.86;56.46;98100.16;6268859;27;96797;-60
2022/07/31 00:11:34;;;;;;;;;41.80;35.20;;;;;24.81;56.65;98103.91;6264834;27;96612;-55
2022/07/31 00:14:37;;;;;;;;;34.80;31.80;;;;;24.83;56.68;98109.06;6264666;27;97483;-59
2022/07/31 00:17:42;;;;;;;;;20.00;19.00;;;;;24.84;56.68;98116.19;6264828;27;97605;-59
2022/07/31 00:20:45;;;;;;;;;29.50;28.50;;;;;24.83;56.47;98115.38;6273487;27;97419;-63
2022/07/31 00:23:50;;;;;;;;;35.60;31.60;;;;;24.80;56.53;98113.31;6264444;27;98062;-58
2022/07/31 00:26:53;;;;;;;;;28.80;27.20;;;;;24.81;56.40;98108.59;6278501;27;97312;-59
2022/07/31 00:29:57;;;;;;;;;25.40;24.40;;;;;24.80;56.53;98107.78;6270987;27;97448;-56
2022/07/31 00:33:00;;;;;;;;;24.80;21.00;;;;;24.80;56.57;98102.28;6271189;27;97500;-59
2022/07/31 00:36:06;;;;;;;;;24.50;23.75;;;;;24.82;56.74;98104.72;6288221;27;97686;-58
2022/07/31 00:39:10;;;;;;;;;24.25;23.50;;;;;24.81;56.60;98105.84;6271236;27;97444;-59
2022/07/31 00:42:18;;;;;;;;;15.75;14.75;;;;;24.80;56.56;98104.22;6271640;27;97526;-59
2022/07/31 00:45:21;;;;;;;;;31.50;30.00;;;;;24.80;56.51;98107.78;6289879;27;96502;-58
2022/07/31 00:48:34;;;;;;;;;35.20;32.20;;;;;24.79;56.44;98106.19;6271406;27;97452;-57
2022/07/31 00:51:38;;;;;;;;;26.40;26.40;;;;;24.79;56.30;98108.13;6269465;27;96817;-60
2022/07/31 00:54:43;;;;;;;;;26.00;24.00;;;;;24.78;56.40;98106.50;6263941;27;96784;-59
2022/07/31 00:57:46;;;;;;;;;20.40;19.40;;;;;24.76;56.47;98101.34;6266611;27;97071;-59
2022/07/31 01:00:49;;;;;;;;;18.60;17.80;;;;;24.76;56.38;98104.09;6263921;27;97337;-57
2022/07/31 01:03:53;;;;;;;;;27.00;26.00;;;;;24.76;56.25;98106.03;6264085;27;96850;-63
2022/07/31 01:06:58;;;;;;;;;19.40;18.00;;;;;24.77;55.94;98102.97;6264000;27;96972;-57
2022/07/31 01:10:09;;;;;;;;;16.75;15.75;;;;;24.79;56.06;98103.41;6265914;27;98151;-58
2022/07/31 01:13:19;;;;;;;;;22.20;21.20;;;;;24.75;55.87;98099.72;6315065;27;97338;-59
2022/07/31 01:16:27;;;;;;;;;17.00;16.20;;;;;24.80;56.06;98104.22;6296158;27;96720;-58
2022/07/31 01:19:36;;;;;;;;;19.50;18.50;;;;;24.78;56.15;98110.06;6314434;27;98382;-59
2022/07/31 01:22:58;;;;;;;;;24.00;23.00;;;;;24.75;56.24;98098.91;6283124;27;97613;-59
2022/07/31 01:26:20;;;;;;;;;23.60;23.60;;;;;24.73;56.14;98104.75;6245437;27;96385;-60
2022/07/31 01:29:45;;;;;;;;;19.80;19.80;;;;;24.73;56.29;98092.94;6257372;27;96342;-59
2022/07/31 01:32:51;;;;;;;;;27.00;26.80;;;;;24.72;56.09;98085.81;6269827;27;97062;-54
2022/07/31 01:36:02;;;;;;;;;22.75;22.75;;;;;24.71;56.28;98092.44;6270046;27;97233;-59
2022/07/31 01:39:06;;;;;;;;;19.60;19.20;;;;;24.72;56.13;98094.06;6267827;27;97124;-56
2022/07/31 01:42:15;;;;;;;;;26.00;24.40;;;;;24.71;56.09;98086.94;6257477;27;96634;-58
2022/07/31 01:45:22;;;;;;;;;19.00;18.20;;;;;24.72;56.27;98086.63;6265872;27;96759;-56
2022/07/31 01:48:27;;;;;;;;;20.00;20.00;;;;;24.72;56.01;98078.34;6269622;27;97584;-58
2022/07/31 01:51:35;;;;;;;;;19.50;19.50;;;;;24.59;56.04;98063.66;6268918;27;97276;-59
2022/07/31 01:54:40;;;;;;;;;20.00;19.00;;;;;24.75;56.20;98085.94;6269979;27;96686;-59
2022/07/31 01:57:45;;;;;;;;;19.00;19.00;;;;;24.74;56.01;98083.50;6269661;27;96639;-59
2022/07/31 02:00:54;;;;;;;;;13.20;12.40;;;;;24.64;56.09;98056.31;6266296;27;97536;-61
2022/07/31 02:04:00;;;;;;;;;24.00;23.00;;;;;24.74;55.79;98076.03;6269618;27;97517;-59
2022/07/31 02:07:07;;;;;;;;;13.00;13.00;;;;;24.74;56.08;98067.78;6255591;27;96873;-59
2022/07/31 02:10:12;;;;;;;;;24.40;24.40;;;;;24.72;56.04;98069.25;6244075;27;97082;-59
2022/07/31 02:13:16;;;;;;;;;26.25;25.00;;;;;24.70;56.02;98066.84;6244564;27;96999;-56
2022/07/31 02:16:22;;;;;;;;;18.20;17.60;;;;;24.68;56.13;98057.28;6263695;27;96840;-58
2022/07/31 02:19:34;;;;;;;;;21.80;21.80;;;;;24.67;55.92;98062.00;6261448;27;96489;-68
2022/07/31 02:22:38;;;;;;;;;28.40;28.40;;;;;24.65;56.15;98064.25;6287878;27;97410;-64
2022/07/31 02:25:44;;;;;;;;;21.80;21.40;;;;;24.68;56.21;98058.06;6282697;27;97290;-59
2022/07/31 02:28:49;;;;;;;;;15.20;14.60;;;;;24.70;56.21;98058.56;6244326;27;96433;-57
2022/07/31 02:31:58;;;;;;;;;15.00;14.60;;;;;24.70;56.02;98050.28;6276778;27;97449;-59
2022/07/31 02:35:09;;;;;;;;;16.00;16.00;;;;;24.71;55.92;98051.91;6260591;27;96654;-60
2022/07/31 02:38:14;;;;;;;;;13.00;12.50;;;;;24.68;55.98;98047.06;6254220;27;96971;-58
2022/07/31 02:41:27;;;;;;;;;11.00;10.60;;;;;24.66;56.04;98045.78;6243816;27;97589;-57
2022/07/31 02:44:33;;;;;;;;;15.40;15.40;;;;;24.68;56.15;98049.03;6259729;27;96684;-59
2022/07/31 02:47:39;;;;;;;;;18.50;18.00;;;;;24.65;56.19;98042.22;6244119;27;98162;-57
2022/07/31 02:50:46;;;;;;;;;12.80;12.80;;;;;24.64;56.35;98045.28;6266918;27;96705;-58
2022/07/31 02:53:51;;;;;;;;;18.20;18.20;;;;;24.62;56.43;98047.59;6251670;27;97739;-55
2022/07/31 02:56:57;;;;;;;;;13.00;12.75;;;;;24.61;56.58;98046.78;6243830;27;96963;-58
2022/07/31 03:00:01;;;;;;;;;19.50;19.50;;;;;24.60;56.75;98047.91;6246532;27;96917;-57
2022/07/31 03:03:08;;;;;;;;;14.80;14.80;;;;;24.56;56.90;98046.97;6261769;27;97498;-58
2022/07/31 03:06:13;;;;;;;;;19.80;19.80;;;;;24.37;56.89;98016.28;6254988;27;97915;-55
2022/07/31 03:09:18;;;;;;;;;17.33;17.33;;;;;24.52;57.00;98041.34;6264995;27;97574;-57
2022/07/31 03:12:25;;;;;;;;;33.80;32.00;;;;;24.51;57.32;98039.72;6259800;27;97079;-57
2022/07/31 03:15:30;;;;;;;;;22.20;22.20;;;;;24.36;57.25;98012.72;6263955;27;96980;-59
2022/07/31 03:18:36;;;;;;;;;38.40;34.60;;;;;24.47;57.49;98037.97;6264621;27;96971;-58
2022/07/31 03:21:41;;;;;;;;;21.00;21.00;;;;;24.38;57.73;98020.66;6257983;27;97506;-56
2022/07/31 03:24:45;;;;;;;;;40.40;35.80;;;;;24.47;57.54;98032.44;6266705;27;96562;-57
2022/07/31 03:27:48;;;;;;;;;19.40;19.00;;;;;24.28;57.41;97999.81;6265111;27;96785;-62
2022/07/31 03:30:58;;;;;;;;;31.20;30.20;;;;;24.46;57.53;98030.81;6272282;27;96818;-59
2022/07/31 03:34:06;;;;;;;;;46.80;40.20;;;;;24.45;57.70;98023.69;6247002;27;97200;-57
2022/07/31 03:37:10;;;;;;;;;34.80;32.60;;;;;24.46;57.57;98026.13;6247661;27;96727;-58
2022/07/31 03:40:14;;;;;;;;;22.00;22.00;;;;;24.45;57.72;98023.69;6265064;27;96613;-60
2022/07/31 03:43:19;;;;;;;;;26.00;25.80;;;;;24.43;57.52;98026.00;6260852;27;97648;-60
2022/07/31 03:46:24;;;;;;;;;28.00;28.00;;;;;24.36;57.79;98015.47;6248275;27;96981;-60
2022/07/31 03:49:31;;;;;;;;;24.60;24.40;;;;;24.42;57.62;98018.88;6257934;27;98362;-58
2022/07/31 03:52:36;;;;;;;;;23.20;23.00;;;;;24.42;57.59;98030.69;6258692;27;97410;-57
2022/07/31 03:55:41;;;;;;;;;29.80;29.20;;;;;24.41;57.76;98025.50;6264927;27;97600;-56
2022/07/31 03:58:44;;;;;;;;;21.00;21.00;;;;;24.40;58.21;98032.16;6247075;27;97460;-66
2022/07/31 04:01:54;;;;;;;;;10.00;10.00;;;;;24.29;58.00;98019.91;6247656;27;97806;-57
2022/07/31 04:05:16;;;;;;;;;23.40;23.00;;;;;24.39;57.90;98036.03;6263515;27;97818;-59
2022/07/31 04:08:20;;;;;;;;;32.60;30.80;;;;;24.39;57.88;98031.34;6246979;27;96842;-58
2022/07/31 04:11:23;;;;;;;;;20.80;20.80;;;;;24.40;58.19;98040.41;6257358;27;97888;-58
2022/07/31 04:14:27;;;;;;;;;24.00;24.00;;;;;24.41;58.20;98031.00;6265976;27;97453;-58
2022/07/31 04:17:30;;;;;;;;;23.00;23.00;;;;;24.43;58.15;98034.25;6263176;27;98200;-59
2022/07/31 04:20:37;;;;;;;;;26.40;26.20;;;;;24.43;58.15;98034.25;6261888;27;96809;-60
2022/07/31 04:23:43;;;;;;;;;29.00;28.75;;;;;24.42;57.89;98036.19;6273279;27;97206;-59
2022/07/31 04:26:56;;;;;;;;;17.00;17.00;;;;;24.44;58.09;98041.34;6280659;27;96967;-60
2022/07/31 04:30:08;;;;;;;;;12.50;12.50;;;;;24.40;58.04;98043.97;6268527;27;97390;-61
2022/07/31 04:33:13;;;;;;;;;36.80;33.80;;;;;24.44;57.76;98053.19;6245884;27;97437;-58
2022/07/31 04:36:18;;;;;;;;;37.40;34.40;;;;;24.46;57.74;98055.63;6254257;27;97226;-56
2022/07/31 04:39:34;;;;;;;;;22.60;22.60;;;;;24.46;57.66;98061.13;6252982;27;97550;-57
2022/07/31 04:42:38;;;;;;;;;20.60;20.60;;;;;24.44;57.21;98052.38;6259908;27;96826;-59
2022/07/31 04:45:41;;;;;;;;;19.40;19.40;;;;;24.47;56.81;98057.25;6262928;27;97578;-58
2022/07/31 04:48:45;;;;;;;;;29.00;29.00;;;;;24.50;56.59;98071.16;6244899;27;97246;-57
2022/07/31 04:51:52;;;;;;;;;38.25;35.00;;;;;24.52;56.45;98079.09;6262278;27;97428;-59
2022/07/31 04:54:56;;;;;;;;;32.00;30.50;;;;;24.52;56.34;98079.91;6267192;27;96612;-60
2022/07/31 04:57:59;;;;;;;;;30.60;29.80;;;;;24.55;56.19;98081.19;6286128;27;96801;-58
2022/07/31 05:01:03;;;;;;;;;21.40;21.40;;;;;24.56;55.99;98088.31;6259820;27;97549;-59
2022/07/31 05:04:08;;;;;;;;;19.25;19.25;;;;;24.57;56.05;98090.75;6253186;27;97421;-62
2022/07/31 05:07:12;;;;;;;;;24.20;24.20;;;;;24.45;55.75;98076.03;6243112;27;97491;-63
2022/07/31 05:13:33;;;;;;;;;22.40;22.40;;;;;24.54;55.57;98098.84;6269524;27;97648;-59
2022/07/31 05:16:37;;;;;;;;;22.50;22.50;;;;;24.54;55.55;98091.38;6246622;27;96804;-59
2022/07/31 05:19:41;;;;;;;;;33.75;32.00;;;;;24.54;55.58;98099.66;6263916;27;97664;-60
2022/07/31 05:23:12;;;;;;;;;20.20;20.20;;;;;24.50;55.35;98101.47;6259549;27;97095;-60
2022/07/31 05:26:35;;;;;;;;;25.40;25.40;;;;;24.52;55.44;98103.91;6262001;27;97473;-60
2022/07/31 05:29:39;;;;;;;;;27.00;27.00;;;;;24.50;55.51;98101.47;6274032;27;97489;-58
2022/07/31 05:32:42;;;;;;;;;28.00;28.00;;;;;24.49;55.51;98107.31;6258339;27;97499;-60
2022/07/31 05:35:46;;;;;;;;;39.00;35.00;;;;;24.48;55.54;98117.50;6271511;27;97275;-59
2022/07/31 05:38:50;;;;;;;;;42.60;37.40;;;;;24.47;55.66;98120.63;6260387;27;97490;-58
2022/07/31 05:42:08;;;;;;;;;26.00;26.00;;;;;24.45;55.58;98125.63;6279485;27;97503;-59
2022/07/31 05:45:23;;;;;;;;;29.00;29.00;;;;;24.24;55.47;98094.47;6287858;27;96705;-56
2022/07/31 05:48:27;;;;;;;;;32.60;31.40;;;;;24.42;55.49;98127.13;6260286;27;97578;-58
2022/07/31 05:51:30;;;;;;;;;33.80;32.00;;;;;24.40;55.38;98123.88;6276106;27;97017;-59
2022/07/31 05:54:36;;;;;;;;;34.80;32.80;;;;;24.41;55.34;98124.69;6261486;27;96689;-58
2022/07/31 05:57:58;;;;;;;;;34.20;32.20;;;;;24.39;55.30;98124.19;6263137;27;96718;-59
2022/07/31 06:01:02;;;;;;;;;30.00;29.75;;;;;24.39;55.34;98118.69;6245187;27;97441;-61
2022/07/31 06:04:05;;;;;;;;;29.75;29.75;;;;;24.41;55.14;98119.19;6266033;27;97647;-60
2022/07/31 06:07:15;;;;;;;;;27.60;27.40;;;;;24.43;55.21;98116.91;6254942;27;97466;-59
2022/07/31 06:10:21;;;;;;;;;29.25;29.25;;;;;24.43;55.08;98117.72;6265428;27;96555;-57
2022/07/31 06:13:26;;;;;;;;;28.40;27.80;;;;;24.45;55.04;98117.38;6264283;27;97428;-59
2022/07/31 06:16:30;;;;;;;;;40.60;36.00;;;;;24.47;55.15;98120.63;6256896;27;98113;-55
2022/07/31 06:19:33;;;;;;;;;26.00;26.00;;;;;24.50;54.89;98122.69;6260641;27;97486;-61
2022/07/31 06:22:38;;;;;;;;;26.80;26.20;;;;;24.54;55.08;98129.97;6267187;27;97558;-60
2022/07/31 06:25:43;;;;;;;;;46.25;39.75;;;;;24.58;55.12;98124.63;6264342;27;98208;-56
2022/07/31 06:28:48;;;;;;;;;32.60;30.20;;;;;24.62;54.99;98122.81;6263235;27;97039;-60
2022/07/31 06:31:53;;;;;;;;;24.75;24.75;;;;;24.67;54.96;98124.56;6262497;27;98497;-61
2022/07/31 06:34:57;;;;;;;;;35.00;33.00;;;;;24.69;54.66;98125.03;6257166;27;98068;-60
2022/07/31 06:38:00;;;;;;;;;30.00;29.00;;;;;24.68;54.47;98128.97;6248961;27;97186;-59
2022/07/31 06:41:43;;;;;;;;;32.40;31.40;;;;;24.74;54.71;98133.94;6259598;27;98083;-58
2022/07/31 06:44:56;;;;;;;;;31.75;31.00;;;;;24.76;54.53;98139.13;6269361;27;98368;-59
2022/07/31 06:48:18;;;;;;;;;24.25;24.25;;;;;24.75;54.36;98140.25;6269301;27;97253;-60
2022/07/31 06:51:27;;;;;;;;;43.00;37.50;;;;;24.73;54.22;98139.78;6253228;27;97106;-62
2022/07/31 06:54:36;;;;;;;;;23.20;23.20;;;;;24.75;54.34;98143.00;6260473;27;98493;-62
2022/07/31 06:57:42;;;;;;;;;25.75;25.75;;;;;24.74;54.35;98158.75;6264652;27;97528;-59
2022/07/31 07:00:46;;;;;;;;;31.75;30.75;;;;;24.71;54.69;98145.63;6264531;27;97069;-60
2022/07/31 07:03:52;;;;;;;;;33.50;32.00;;;;;24.78;54.57;98158.88;6269539;27;96834;-63
2022/07/31 07:06:55;;;;;;;;;30.20;29.60;;;;;24.80;54.46;98153.84;6270583;27;97102;-54
2022/07/31 07:09:59;;;;;;;;;36.00;33.00;;;;;24.78;54.48;98159.69;6251780;27;97744;-59
2022/07/31 07:13:27;;;;;;;;;34.25;32.00;;;;;24.79;54.60;98166.00;6251871;27;97496;-58
2022/07/31 07:16:50;;;;;;;;;19.20;19.20;;;;;24.82;54.34;98170.88;6269444;27;96575;-58
2022/07/31 07:19:53;;;;;;;;;30.33;29.67;;;;;24.82;54.38;98170.88;6262049;27;97453;-57
2022/07/31 07:22:58;;;;;;;;;30.50;30.00;;;;;24.81;54.31;98169.25;6260634;27;96956;-62
2022/07/31 07:26:12;;;;;;;;;26.00;26.00;;;;;24.73;54.50;98162.63;6266196;27;97428;-60
2022/07/31 07:29:17;;;;;;;;;24.75;24.75;;;;;24.75;54.45;98162.31;6263448;27;96625;-61
2022/07/31 07:32:20;;;;;;;;;23.33;23.33;;;;;24.72;54.46;98166.56;6276092;27;98978;-55
2022/07/31 07:35:24;;;;;;;;;49.00;41.25;;;;;24.70;54.30;98174.31;6268738;27;97405;-59
2022/07/31 07:38:29;;;;;;;;;25.80;25.80;;;;;24.70;54.42;98174.31;6264610;27;97519;-62
2022/07/31 07:41:33;;;;;;;;;24.00;24.00;;;;;24.67;54.34;98176.94;6261740;27;96766;-60
2022/07/31 07:44:38;;;;;;;;;30.00;30.00;;;;;24.65;53.96;98174.50;6260909;27;97656;-60
2022/07/31 07:47:42;;;;;;;;;30.60;29.80;;;;;24.63;54.03;98176.78;6263971;27;96765;-60
2022/07/31 07:51:09;;;;;;;;;37.25;34.25;;;;;24.55;53.70;98185.91;6262271;27;97265;-63
2022/07/31 07:54:26;;;;;;;;;39.40;35.60;;;;;24.55;53.65;98194.97;6266657;27;97467;-58
2022/07/31 07:57:48;;;;;;;;;41.00;36.40;;;;;24.54;53.38;98200.81;6269002;27;97428;-53
2022/07/31 08:01:29;;;;;;;;;31.00;30.00;;;;;24.50;53.23;98200.66;6234253;27;97093;-58
2022/07/31 08:04:43;;;;;;;;;42.00;36.40;;;;;24.49;53.18;98209.25;6265988;27;97449;-59
2022/07/31 08:07:49;;;;;;;;;36.50;33.50;;;;;24.47;53.46;98208.78;6230264;27;97649;-65
2022/07/31 08:11:17;;;;;;;;;30.40;30.00;;;;;24.32;53.34;98201.03;6264364;27;97422;-57
2022/07/31 08:14:35;;;;;;;;;34.80;32.40;;;;;24.29;53.36;98208.00;6257213;27;98136;-58
2022/07/31 08:18:00;;;;;;;;;36.20;33.40;;;;;24.40;53.21;98220.31;6257100;27;98191;-60
2022/07/31 08:21:03;;;;;;;;;36.80;33.80;;;;;24.39;53.22;98226.13;6249331;27;97425;-62
2022/07/31 08:24:07;;;;;;;;;30.25;29.50;;;;;24.37;53.17;98231.19;6273044;27;97085;-61
2022/07/31 08:27:26;;;;;;;;;36.75;33.50;;;;;24.36;53.53;98227.63;6250599;27;98229;-65
2022/07/31 08:30:43;;;;;;;;;39.00;35.00;;;;;24.32;53.73;98231.34;6263521;27;97363;-61
2022/07/31 08:33:50;;;;;;;;;26.80;26.80;;;;;24.30;53.37;98231.66;6257578;27;97386;-60
2022/07/31 08:36:54;;;;;;;;;33.00;31.75;;;;;24.28;53.66;98233.97;6253942;27;96861;-61
2022/07/31 08:39:58;;;;;;;;;30.75;30.00;;;;;24.26;53.60;98232.66;6261405;27;97370;-63
2022/07/31 08:43:02;;;;;;;;;26.40;26.40;;;;;24.26;53.54;98238.16;6258796;27;97687;-60
2022/07/31 08:46:26;;;;;;;;;36.60;33.80;;;;;24.25;53.76;98237.34;6260496;27;97825;-57
2022/07/31 08:49:36;;;;;;;;;48.00;40.80;;;;;24.12;53.92;98211.59;6253237;27;97630;-58
2022/07/31 08:52:42;;;;;;;;;31.80;30.80;;;;;24.26;54.03;98238.16;6259557;27;97495;-64
2022/07/31 08:55:57;;;;;;;;;23.60;23.60;;;;;24.23;53.77;98241.59;6259812;27;97076;-56
2022/07/31 08:59:04;;;;;;;;;10.25;10.25;;;;;24.22;53.93;98232.50;6262471;27;97902;-58
2022/07/31 09:02:09;;;;;;;;;44.20;38.40;;;;;24.20;53.75;98233.94;6251194;27;98249;-65
2022/07/31 09:05:23;;;;;;;;;35.60;33.40;;;;;24.15;53.84;98238.47;6264808;27;97099;-60
2022/07/31 09:08:44;;;;;;;;;35.00;33.00;;;;;24.17;53.96;98250.00;6250340;27;97037;-60
2022/07/31 09:11:49;;;;;;;;;51.60;44.20;;;;;24.17;53.97;98247.25;6256624;27;97782;-59
2022/07/31 09:15:20;;;;;;;;;35.60;33.00;;;;;24.19;54.07;98246.91;6264385;27;97190;-57
2022/07/31 09:18:24;;;;;;;;;19.20;19.20;;;;;24.20;54.18;98253.22;6264069;27;97563;-57
2022/07/31 09:21:44;;;;;;;;;22.60;22.60;;;;;24.21;53.77;98252.09;6246122;27;96964;-61
2022/07/31 09:24:47;;;;;;;;;38.60;34.60;;;;;24.20;53.79;98244.97;6260181;27;98069;-59
2022/07/31 09:28:01;;;;;;;;;26.20;26.20;;;;;24.19;54.03;98243.38;6256865;27;98303;-61
2022/07/31 09:31:07;;;;;;;;;20.75;20.75;;;;;24.23;54.12;98261.69;6261699;27;97446;-59
2022/07/31 09:34:44;;;;;;;;;37.00;34.25;;;;;24.25;54.18;98253.06;6238242;27;96838;-62
2022/07/31 09:37:53;;;;;;;;;27.00;27.00;;;;;24.23;53.79;98264.44;6257151;27;97503;-62
2022/07/31 09:41:19;;;;;;;;;29.80;29.40;;;;;24.06;53.66;98226.66;6266912;27;97102;-59
2022/07/31 09:44:53;;;;;;;;;7.20;7.20;;;;;24.20;53.78;98264.25;6254754;27;97335;-57
2022/07/31 09:48:06;;;;;;;;;31.00;30.00;;;;;24.21;53.86;98263.13;6259529;27;97494;-56
2022/07/31 09:51:15;;;;;;;;;23.25;23.25;;;;;24.22;54.05;98273.00;6256850;27;97438;-58
2022/07/31 09:54:21;;;;;;;;;18.00;18.00;;;;;24.21;53.63;98274.94;6274164;27;98002;-58
2022/07/31 09:57:28;;;;;;;;;29.33;29.33;;;;;24.21;53.40;98274.94;6262244;27;97448;-63
2022/07/31 10:00:34;;;;;;;;;22.00;22.00;;;;;24.23;53.39;98274.63;6252417;27;96611;-60
2022/07/31 10:03:39;;;;;;;;;30.00;29.75;;;;;24.24;53.22;98273.50;6284506;27;97494;-61
2022/07/31 10:06:46;;;;;;;;;19.75;19.75;;;;;24.28;53.34;98277.22;6262968;27;96901;-60
2022/07/31 10:09:55;;;;;;;;;30.60;30.00;;;;;24.30;52.93;98280.44;6265282;27;97554;-63
2022/07/31 10:13:20;;;;;;;;;31.40;30.00;;;;;24.15;53.05;98271.50;6256671;27;98571;-60
2022/07/31 10:16:27;;;;;;;;;24.80;24.80;;;;;24.30;53.09;98283.19;6260578;27;96753;-63
2022/07/31 10:20:01;;;;;;;;;35.80;33.40;;;;;24.25;52.74;98264.09;6243875;27;98745;-54
2022/07/31 10:23:22;;;;;;;;;34.80;32.80;;;;;24.33;52.88;98290.81;6261047;27;97313;-60
2022/07/31 10:26:30;;;;;;;;;30.80;30.00;;;;;24.25;52.62;98281.41;6256909;27;97888;-62
2022/07/31 10:29:54;;;;;;;;;26.80;26.60;;;;;24.25;52.85;98292.44;6251936;27;97723;-54
2022/07/31 10:32:58;;;;;;;;;24.40;24.40;;;;;24.27;52.85;98292.94;6279705;27;97300;-59
2022/07/31 10:36:06;;;;;;;;;17.60;17.60;;;;;24.24;52.72;98296.31;6271828;27;97309;-59
2022/07/31 10:39:35;;;;;;;;;19.00;18.50;;;;;24.23;52.85;98296.66;6266346;27;97247;-59
2022/07/31 10:43:16;;;;;;;;;38.80;35.00;;;;;24.25;52.94;98299.88;6273338;27;97514;-61
2022/07/31 10:46:30;;;;;;;;;35.80;33.20;;;;;24.24;53.03;98299.06;6259099;27;97085;-62
2022/07/31 10:49:58;;;;;;;;;31.25;30.25;;;;;24.23;52.94;98299.41;6262663;27;97755;-64
2022/07/31 10:53:08;;;;;;;;;20.40;20.40;;;;;24.29;53.11;98303.63;6273595;27;97989;-58
2022/07/31 10:56:41;;;;;;;;;47.40;40.60;;;;;24.33;53.22;98294.41;6267583;27;97158;-58
2022/07/31 11:00:22;;;;;;;;;26.80;26.00;;;;;24.40;53.07;98315.91;6244665;27;97379;-62
2022/07/31 11:04:10;;;;;;;;;34.40;32.40;;;;;24.46;53.12;98315.44;6156211;28;97481;-62
2022/07/31 11:07:41;;;;;;;;;32.00;31.00;;;;;24.52;53.38;98314.16;6144282;27;97441;-61
2022/07/31 11:11:04;;;;;;;;;24.00;24.00;;;;;24.57;53.24;98321.44;6277715;27;97643;-60
2022/07/31 11:14:40;;;;;;;;;35.00;33.00;;;;;24.61;53.28;98316.88;6233031;27;97672;-62
2022/07/31 11:18:13;;;;;;;;;33.40;32.00;;;;;24.46;52.73;98295.34;6270819;27;97344;-60
2022/07/31 11:21:40;;;;;;;;;31.50;30.00;;;;;24.61;52.89;98314.13;6265093;27;97395;-61
2022/07/31 11:24:54;;;;;;;;;31.00;30.25;;;;;24.59;52.77;98316.38;6272802;27;96684;-60
2022/07/31 11:27:58;;;;;;;;;25.50;24.75;;;;;24.63;52.73;98325.59;6269503;27;97835;-60
2022/07/31 11:31:06;;;;;;;;;29.00;29.00;;;;;24.64;52.97;98323.66;6272691;27;96542;-62
2022/07/31 11:34:10;;;;;;;;;22.00;22.00;;;;;24.59;52.80;98322.72;6245464;27;98048;-59
2022/07/31 11:37:16;;;;;;;;;30.60;29.00;;;;;24.44;53.16;98319.66;6275192;27;96533;-58
2022/07/31 11:40:20;;;;;;;;;19.00;19.00;;;;;24.56;52.62;98320.63;6271665;27;97608;-60
2022/07/31 11:43:29;;;;;;;;;24.00;23.60;;;;;24.51;52.81;98320.78;6278791;27;97420;-58
2022/07/31 11:46:36;;;;;;;;;25.00;25.00;;;;;24.49;52.99;98317.53;6270439;27;97691;-62
2022/07/31 11:49:41;;;;;;;;;31.40;30.60;;;;;24.47;53.37;98322.56;6275704;27;97595;-62
2022/07/31 11:53:02;;;;;;;;;24.20;24.20;;;;;24.47;53.15;98324.53;6275380;27;96679;-56
2022/07/31 11:56:05;;;;;;;;;42.80;37.60;;;;;24.40;53.06;98313.97;6276037;27;96655;-57
2022/07/31 11:59:09;;;;;;;;;25.75;25.75;;;;;24.39;53.19;98319.81;6275863;27;97038;-58
2022/07/31 12:02:32;;;;;;;;;22.50;22.00;;;;;24.38;53.27;98312.69;6284041;27;97362;-62
2022/07/31 12:05:45;;;;;;;;;16.40;16.40;;;;;24.18;53.46;98286.63;6257242;27;97143;-61
2022/07/31 12:08:49;;;;;;;;;19.80;19.80;;;;;24.44;53.60;98316.88;6261512;27;98878;-55
2022/07/31 12:11:53;;;;;;;;;20.60;20.60;;;;;24.45;53.80;98329.53;6274603;27;97051;-60
2022/07/31 12:14:56;;;;;;;;;34.60;32.60;;;;;24.45;53.57;98326.78;6274287;27;97087;-63
2022/07/31 12:18:01;;;;;;;;;25.50;25.50;;;;;24.45;53.97;98329.53;6278884;27;97417;-60
2022/07/31 12:21:06;;;;;;;;;32.40;31.20;;;;;24.42;53.40;98335.72;6272101;27;98311;-61
2022/07/31 12:24:14;;;;;;;;;25.00;24.50;;;;;24.44;53.82;98337.00;6273284;27;97478;-61
2022/07/31 12:27:18;;;;;;;;;44.60;38.80;;;;;24.42;53.83;98336.53;6275739;27;97462;-60
2022/07/31 12:30:23;;;;;;;;;31.00;30.25;;;;;24.44;54.15;98338.94;6282422;27;97910;-59
2022/07/31 12:33:40;;;;;;;;;25.20;25.20;;;;;24.48;54.05;98339.94;6277324;27;97094;-58
2022/07/31 12:36:45;;;;;;;;;23.60;23.60;;;;;24.48;54.10;98337.16;6281518;27;96684;-60
2022/07/31 12:39:54;;;;;;;;;24.20;23.80;;;;;24.49;54.02;98347.84;6261831;27;99227;-60
2022/07/31 12:43:04;;;;;;;;;25.80;25.80;;;;;24.55;53.98;98345.72;6275072;27;98829;-62
2022/07/31 12:46:08;;;;;;;;;29.80;29.40;;;;;24.55;53.94;98341.03;6263093;27;97174;-62
2022/07/31 12:49:11;;;;;;;;;28.20;27.20;;;;;24.54;53.81;98342.16;6276484;27;97035;-62
2022/07/31 12:52:16;;;;;;;;;32.00;31.00;;;;;24.16;53.65;98286.94;6268640;27;97459;-64
2022/07/31 12:55:21;;;;;;;;;29.40;29.40;;;;;24.31;53.72;98304.91;6267870;27;97433;-56
2022/07/31 12:58:25;;;;;;;;;25.00;24.60;;;;;24.47;54.23;98344.63;6271077;27;97116;-58
2022/07/31 13:01:28;;;;;;;;;30.50;29.75;;;;;24.47;54.27;98343.81;6271495;27;97463;-60
2022/07/31 13:04:32;;;;;;;;;25.60;25.60;;;;;24.51;54.36;98339.25;6277363;27;97668;-60
2022/07/31 13:07:37;;;;;;;;;13.60;13.60;;;;;24.51;54.51;98340.06;6274045;27;96688;-57
2022/07/31 13:10:41;;;;;;;;;24.60;24.60;;;;;24.53;54.30;98342.50;6275294;27;97339;-62
2022/07/31 13:13:45;;;;;;;;;29.80;29.40;;;;;24.48;54.27;98335.19;6276812;27;97560;-59
2022/07/31 13:16:51;;;;;;;;;28.25;28.25;;;;;24.49;54.39;98338.75;6271129;27;97589;-60
2022/07/31 13:19:54;;;;;;;;;26.00;26.00;;;;;24.48;54.46;98348.97;6281904;27;97165;-59
2022/07/31 13:23:01;;;;;;;;;26.50;26.50;;;;;24.39;54.18;98336.34;6277645;27;98046;-59
2022/07/31 13:26:04;;;;;;;;;42.75;37.50;;;;;24.41;54.24;98356.13;6240374;27;97231;-59
2022/07/31 13:29:07;;;;;;;;;35.20;33.00;;;;;24.35;54.29;98357.41;6272296;27;98224;-61
2022/07/31 13:32:11;;;;;;;;;16.75;16.75;;;;;24.36;54.45;98351.59;6274834;27;97342;-61
2022/07/31 13:35:14;;;;;;;;;41.80;36.60;;;;;24.33;54.45;98346.75;6277466;27;97282;-57
2022/07/31 13:38:31;;;;;;;;;27.00;26.80;;;;;24.30;54.67;98336.34;6252622;27;98408;-60
2022/07/31 13:41:35;;;;;;;;;36.20;33.20;;;;;24.25;54.50;98342.03;6268983;27;97706;-62
2022/07/31 13:44:41;;;;;;;;;39.75;35.75;;;;;24.17;54.73;98340.91;6275288;27;98922;-63
2022/07/31 13:47:44;;;;;;;;;24.75;24.50;;;;;24.11;55.05;98336.66;6276664;27;98087;-64
2022/07/31 13:50:53;;;;;;;;;37.00;33.60;;;;;24.10;55.08;98345.22;6275203;27;97251;-56
2022/07/31 13:53:58;;;;;;;;;31.67;30.67;;;;;24.06;55.23;98350.56;6279468;27;97451;-57
2022/07/31 13:57:01;;;;;;;;;32.75;31.50;;;;;24.01;55.22;98345.22;6267797;27;97048;-58
2022/07/31 14:00:06;;;;;;;;;15.75;15.75;;;;;24.00;55.42;98345.53;6273302;27;97384;-59
2022/07/31 14:03:10;;;;;;;;;27.60;27.60;;;;;23.98;55.67;98351.38;6279621;27;97910;-62
2022/07/31 14:06:17;;;;;;;;;24.60;24.40;;;;;23.96;56.00;98347.31;6271213;27;97553;-63
2022/07/31 14:09:25;;;;;;;;;28.00;28.00;;;;;23.92;55.91;98349.09;6267803;27;96642;-58
2022/07/31 14:12:28;;;;;;;;;35.80;33.20;;;;;23.92;55.99;98347.16;6269286;27;97458;-60
2022/07/31 14:15:32;;;;;;;;;22.80;22.80;;;;;23.87;56.24;98352.00;6274138;27;97210;-56
2022/07/31 14:18:35;;;;;;;;;30.00;29.50;;;;;23.88;56.00;98350.88;6270279;27;96812;-62
2022/07/31 14:21:38;;;;;;;;;26.60;26.40;;;;;23.88;56.36;98350.88;6268276;27;97071;-57
2022/07/31 14:25:00;;;;;;;;;21.00;21.00;;;;;23.86;56.68;98350.38;6278119;27;97422;-57
2022/07/31 14:28:03;;;;;;;;;37.25;34.00;;;;;23.88;57.01;98348.13;6269580;27;97173;-58
2022/07/31 14:31:06;;;;;;;;;23.60;23.40;;;;;23.89;56.81;98358.81;6275915;27;97603;-59
2022/07/31 14:34:10;;;;;;;;;28.60;28.60;;;;;23.91;56.91;98361.22;6252935;27;97410;-58